National Weather Service Raw Text Product

Displaying AFOS PIL: TAFMCW Received: 2018-01-03 17:26 UTC


745 
FTUS43 KDMX 031726 AAC
TAFMCW
TAF AMD
KMCW 031726Z 0317/0412 33015G22KT P6SM SKC
     FM040100 31009KT P6SM FEW250
     FM041100 33005KT P6SM SCT200=